sensor_id;sensor_type;location;lat;lon;timestamp;P1;durP1;ratioP1;P2;durP2;ratioP2
34505;SDS011;20748;42.632;23.198;2023-04-15T00:00:12;17.95;;;7.85;;
34505;SDS011;20748;42.632;23.198;2023-04-15T00:02:48;26.30;;;7.90;;
34505;SDS011;20748;42.632;23.198;2023-04-15T00:05:22;21.25;;;5.65;;
34505;SDS011;20748;42.632;23.198;2023-04-15T00:07:54;15.70;;;3.60;;
34505;SDS011;20748;42.632;23.198;2023-04-15T00:10:27;7.30;;;2.80;;
34505;SDS011;20748;42.632;23.198;2023-04-15T00:12:59;5.28;;;2.47;;
34505;SDS011;20748;42.632;23.198;2023-04-15T00:15:33;16.13;;;3.72;;
34505;SDS011;20748;42.632;23.198;2023-04-15T00:18:05;7.57;;;4.07;;
34505;SDS011;20748;42.632;23.198;2023-04-15T00:20:39;6.32;;;4.07;;
34505;SDS011;20748;42.632;23.198;2023-04-15T00:23:11;8.10;;;3.65;;
34505;SDS011;20748;42.632;23.198;2023-04-15T00:25:44;8.07;;;2.72;;
34505;SDS011;20748;42.632;23.198;2023-04-15T00:28:16;6.57;;;2.95;;
34505;SDS011;20748;42.632;23.198;2023-04-15T00:30:49;7.38;;;4.18;;
34505;SDS011;20748;42.632;23.198;2023-04-15T00:33:21;13.30;;;6.50;;
34505;SDS011;20748;42.632;23.198;2023-04-15T00:35:54;13.77;;;5.50;;
34505;SDS011;20748;42.632;23.198;2023-04-15T00:38:27;9.43;;;3.80;;
34505;SDS011;20748;42.632;23.198;2023-04-15T00:40:59;4.47;;;2.65;;
34505;SDS011;20748;42.632;23.198;2023-04-15T00:43:33;9.55;;;2.08;;
34505;SDS011;20748;42.632;23.198;2023-04-15T00:46:05;6.70;;;3.25;;
34505;SDS011;20748;42.632;23.198;2023-04-15T00:48:38;11.60;;;5.03;;
34505;SDS011;20748;42.632;23.198;2023-04-15T00:51:12;8.98;;;3.50;;
34505;SDS011;20748;42.632;23.198;2023-04-15T00:53:45;9.82;;;3.63;;
34505;SDS011;20748;42.632;23.198;2023-04-15T00:56:17;8.30;;;2.70;;
34505;SDS011;20748;42.632;23.198;2023-04-15T00:58:55;6.38;;;3.53;;
34505;SDS011;20748;42.632;23.198;2023-04-15T01:01:28;7.07;;;3.22;;
34505;SDS011;20748;42.632;23.198;2023-04-15T01:04:01;8.25;;;3.00;;
34505;SDS011;20748;42.632;23.198;2023-04-15T01:06:34;5.65;;;2.58;;
34505;SDS011;20748;42.632;23.198;2023-04-15T01:09:07;5.20;;;3.05;;
34505;SDS011;20748;42.632;23.198;2023-04-15T01:11:40;5.57;;;3.10;;
34505;SDS011;20748;42.632;23.198;2023-04-15T01:14:12;10.73;;;3.35;;
34505;SDS011;20748;42.632;23.198;2023-04-15T01:16:45;7.95;;;3.08;;
34505;SDS011;20748;42.632;23.198;2023-04-15T01:19:17;5.40;;;3.00;;
34505;SDS011;20748;42.632;23.198;2023-04-15T01:21:51;6.15;;;3.08;;
34505;SDS011;20748;42.632;23.198;2023-04-15T01:24:24;5.88;;;2.65;;
34505;SDS011;20748;42.632;23.198;2023-04-15T01:26:59;3.78;;;2.35;;
34505;SDS011;20748;42.632;23.198;2023-04-15T01:29:36;5.45;;;2.67;;
34505;SDS011;20748;42.632;23.198;2023-04-15T01:32:09;8.90;;;2.92;;
34505;SDS011;20748;42.632;23.198;2023-04-15T01:35:01;9.75;;;2.80;;
34505;SDS011;20748;42.632;23.198;2023-04-15T01:37:52;7.07;;;3.55;;
34505;SDS011;20748;42.632;23.198;2023-04-15T01:40:25;21.45;;;8.23;;
34505;SDS011;20748;42.632;23.198;2023-04-15T01:42:59;13.85;;;5.25;;
34505;SDS011;20748;42.632;23.198;2023-04-15T01:45:33;20.45;;;8.38;;
34505;SDS011;20748;42.632;23.198;2023-04-15T01:48:09;27.83;;;9.80;;
34505;SDS011;20748;42.632;23.198;2023-04-15T01:50:44;19.08;;;8.60;;
34505;SDS011;20748;42.632;23.198;2023-04-15T01:53:18;19.90;;;7.43;;
34505;SDS011;20748;42.632;23.198;2023-04-15T01:55:52;22.05;;;7.22;;
34505;SDS011;20748;42.632;23.198;2023-04-15T01:58:26;16.95;;;8.15;;
34505;SDS011;20748;42.632;23.198;2023-04-15T02:01:00;14.18;;;6.45;;
34505;SDS011;20748;42.632;23.198;2023-04-15T02:03:37;22.30;;;7.90;;
34505;SDS011;20748;42.632;23.198;2023-04-15T02:06:11;10.35;;;5.65;;
34505;SDS011;20748;42.632;23.198;2023-04-15T02:08:44;16.00;;;7.00;;
34505;SDS011;20748;42.632;23.198;2023-04-15T02:11:18;19.52;;;4.88;;
34505;SDS011;20748;42.632;23.198;2023-04-15T02:13:52;13.82;;;5.63;;
34505;SDS011;20748;42.632;23.198;2023-04-15T02:16:26;9.68;;;4.38;;
34505;SDS011;20748;42.632;23.198;2023-04-15T02:19:00;7.53;;;3.30;;
34505;SDS011;20748;42.632;23.198;2023-04-15T02:21:35;5.10;;;2.22;;
34505;SDS011;20748;42.632;23.198;2023-04-15T02:24:08;4.22;;;2.05;;
34505;SDS011;20748;42.632;23.198;2023-04-15T02:26:46;6.57;;;2.42;;
34505;SDS011;20748;42.632;23.198;2023-04-15T02:29:21;12.73;;;4.20;;
34505;SDS011;20748;42.632;23.198;2023-04-15T02:31:55;15.85;;;6.55;;
34505;SDS011;20748;42.632;23.198;2023-04-15T02:34:29;8.25;;;4.75;;
34505;SDS011;20748;42.632;23.198;2023-04-15T02:37:05;12.55;;;5.45;;
34505;SDS011;20748;42.632;23.198;2023-04-15T02:39:40;13.35;;;6.18;;
34505;SDS011;20748;42.632;23.198;2023-04-15T02:42:15;13.80;;;5.40;;
34505;SDS011;20748;42.632;23.198;2023-04-15T02:44:49;10.30;;;4.72;;
34505;SDS011;20748;42.632;23.198;2023-04-15T02:47:23;12.82;;;4.03;;
34505;SDS011;20748;42.632;23.198;2023-04-15T02:49:57;6.65;;;3.22;;
34505;SDS011;20748;42.632;23.198;2023-04-15T02:52:34;6.00;;;2.72;;
34505;SDS011;20748;42.632;23.198;2023-04-15T02:55:08;9.40;;;2.58;;
34505;SDS011;20748;42.632;23.198;2023-04-15T02:57:42;4.45;;;2.63;;
34505;SDS011;20748;42.632;23.198;2023-04-15T03:00:17;8.02;;;2.88;;
34505;SDS011;20748;42.632;23.198;2023-04-15T03:02:56;8.32;;;3.17;;
34505;SDS011;20748;42.632;23.198;2023-04-15T03:05:31;8.93;;;3.08;;
34505;SDS011;20748;42.632;23.198;2023-04-15T03:08:06;5.00;;;2.97;;
34505;SDS011;20748;42.632;23.198;2023-04-15T03:10:40;8.63;;;3.42;;
34505;SDS011;20748;42.632;23.198;2023-04-15T03:13:13;11.90;;;4.45;;
34505;SDS011;20748;42.632;23.198;2023-04-15T03:15:48;7.63;;;3.30;;
34505;SDS011;20748;42.632;23.198;2023-04-15T03:18:22;3.95;;;2.67;;
34505;SDS011;20748;42.632;23.198;2023-04-15T03:20:56;8.60;;;4.50;;
34505;SDS011;20748;42.632;23.198;2023-04-15T03:23:30;7.85;;;4.10;;
34505;SDS011;20748;42.632;23.198;2023-04-15T03:26:04;7.50;;;3.47;;
34505;SDS011;20748;42.632;23.198;2023-04-15T03:28:39;7.80;;;3.58;;
34505;SDS011;20748;42.632;23.198;2023-04-15T03:31:13;4.55;;;2.28;;
34505;SDS011;20748;42.632;23.198;2023-04-15T03:33:47;4.07;;;1.90;;
34505;SDS011;20748;42.632;23.198;2023-04-15T03:36:21;3.15;;;1.48;;
34505;SDS011;20748;42.632;23.198;2023-04-15T03:38:54;7.97;;;1.77;;
34505;SDS011;20748;42.632;23.198;2023-04-15T03:41:28;5.55;;;2.50;;
34505;SDS011;20748;42.632;23.198;2023-04-15T03:44:02;2.60;;;1.77;;
34505;SDS011;20748;42.632;23.198;2023-04-15T03:46:36;4.10;;;1.83;;
34505;SDS011;20748;42.632;23.198;2023-04-15T03:49:10;6.40;;;3.70;;
34505;SDS011;20748;42.632;23.198;2023-04-15T03:51:44;9.48;;;6.00;;
34505;SDS011;20748;42.632;23.198;2023-04-15T03:54:18;8.10;;;4.13;;
34505;SDS011;20748;42.632;23.198;2023-04-15T03:56:51;7.28;;;3.45;;
34505;SDS011;20748;42.632;23.198;2023-04-15T03:59:25;4.70;;;2.65;;
34505;SDS011;20748;42.632;23.198;2023-04-15T04:01:59;5.28;;;3.03;;
34505;SDS011;20748;42.632;23.198;2023-04-15T04:04:34;7.85;;;3.17;;
34505;SDS011;20748;42.632;23.198;2023-04-15T04:07:07;6.38;;;3.65;;
34505;SDS011;20748;42.632;23.198;2023-04-15T04:09:41;4.22;;;2.15;;
34505;SDS011;20748;42.632;23.198;2023-04-15T04:12:15;2.90;;;1.83;;
34505;SDS011;20748;42.632;23.198;2023-04-15T04:14:48;6.22;;;2.83;;
34505;SDS011;20748;42.632;23.198;2023-04-15T04:17:22;3.40;;;1.83;;
34505;SDS011;20748;42.632;23.198;2023-04-15T04:19:56;3.47;;;1.98;;
34505;SDS011;20748;42.632;23.198;2023-04-15T04:22:30;3.58;;;2.25;;
34505;SDS011;20748;42.632;23.198;2023-04-15T04:25:04;5.70;;;1.83;;
34505;SDS011;20748;42.632;23.198;2023-04-15T04:27:38;6.57;;;4.70;;
34505;SDS011;20748;42.632;23.198;2023-04-15T04:30:12;7.60;;;4.43;;
34505;SDS011;20748;42.632;23.198;2023-04-15T04:32:46;4.88;;;2.30;;
34505;SDS011;20748;42.632;23.198;2023-04-15T04:35:22;6.28;;;2.63;;
34505;SDS011;20748;42.632;23.198;2023-04-15T04:37:56;5.53;;;2.83;;
34505;SDS011;20748;42.632;23.198;2023-04-15T04:40:29;5.30;;;2.92;;
34505;SDS011;20748;42.632;23.198;2023-04-15T04:43:03;8.45;;;4.80;;
34505;SDS011;20748;42.632;23.198;2023-04-15T04:45:37;8.80;;;4.70;;
34505;SDS011;20748;42.632;23.198;2023-04-15T04:48:11;7.20;;;4.15;;
34505;SDS011;20748;42.632;23.198;2023-04-15T04:50:45;9.93;;;5.72;;
34505;SDS011;20748;42.632;23.198;2023-04-15T04:53:19;5.70;;;3.47;;
34505;SDS011;20748;42.632;23.198;2023-04-15T04:55:52;7.35;;;3.50;;
34505;SDS011;20748;42.632;23.198;2023-04-15T04:58:26;8.52;;;3.22;;
34505;SDS011;20748;42.632;23.198;2023-04-15T05:00:59;7.13;;;2.58;;
34505;SDS011;20748;42.632;23.198;2023-04-15T05:03:35;11.55;;;3.92;;
34505;SDS011;20748;42.632;23.198;2023-04-15T05:06:09;6.18;;;3.47;;
34505;SDS011;20748;42.632;23.198;2023-04-15T05:08:43;7.75;;;2.83;;
34505;SDS011;20748;42.632;23.198;2023-04-15T05:11:18;9.82;;;3.90;;
34505;SDS011;20748;42.632;23.198;2023-04-15T05:13:51;6.28;;;3.00;;
34505;SDS011;20748;42.632;23.198;2023-04-15T05:16:25;10.43;;;3.53;;
34505;SDS011;20748;42.632;23.198;2023-04-15T05:18:59;14.73;;;5.68;;
34505;SDS011;20748;42.632;23.198;2023-04-15T05:21:34;9.52;;;3.35;;
34505;SDS011;20748;42.632;23.198;2023-04-15T05:24:10;15.25;;;3.85;;
34505;SDS011;20748;42.632;23.198;2023-04-15T05:26:44;11.55;;;3.35;;
34505;SDS011;20748;42.632;23.198;2023-04-15T05:29:17;11.10;;;3.78;;
34505;SDS011;20748;42.632;23.198;2023-04-15T05:31:51;5.90;;;2.13;;
34505;SDS011;20748;42.632;23.198;2023-04-15T05:34:26;6.72;;;2.95;;
34505;SDS011;20748;42.632;23.198;2023-04-15T05:36:59;2.10;;;1.20;;
34505;SDS011;20748;42.632;23.198;2023-04-15T05:39:33;1.88;;;0.85;;
34505;SDS011;20748;42.632;23.198;2023-04-15T05:42:06;4.50;;;0.73;;
34505;SDS011;20748;42.632;23.198;2023-04-15T05:44:40;3.30;;;1.60;;
34505;SDS011;20748;42.632;23.198;2023-04-15T05:47:14;1.50;;;0.90;;
34505;SDS011;20748;42.632;23.198;2023-04-15T05:49:48;2.25;;;1.10;;
34505;SDS011;20748;42.632;23.198;2023-04-15T05:52:21;2.25;;;0.70;;
34505;SDS011;20748;42.632;23.198;2023-04-15T05:54:55;0.90;;;0.77;;
34505;SDS011;20748;42.632;23.198;2023-04-15T05:57:29;2.22;;;0.55;;
34505;SDS011;20748;42.632;23.198;2023-04-15T06:00:03;1.08;;;0.60;;
34505;SDS011;20748;42.632;23.198;2023-04-15T06:02:41;1.65;;;0.73;;
34505;SDS011;20748;42.632;23.198;2023-04-15T06:05:16;1.25;;;0.75;;
34505;SDS011;20748;42.632;23.198;2023-04-15T06:07:50;2.92;;;0.90;;
34505;SDS011;20748;42.632;23.198;2023-04-15T06:10:24;1.50;;;0.75;;
34505;SDS011;20748;42.632;23.198;2023-04-15T06:12:58;6.05;;;0.93;;
34505;SDS011;20748;42.632;23.198;2023-04-15T06:15:32;3.33;;;0.82;;
34505;SDS011;20748;42.632;23.198;2023-04-15T06:18:05;2.58;;;0.70;;
34505;SDS011;20748;42.632;23.198;2023-04-15T06:20:40;3.28;;;1.05;;
34505;SDS011;20748;42.632;23.198;2023-04-15T06:23:13;6.47;;;1.17;;
34505;SDS011;20748;42.632;23.198;2023-04-15T06:25:47;1.42;;;0.50;;
34505;SDS011;20748;42.632;23.198;2023-04-15T06:28:21;1.52;;;0.60;;
34505;SDS011;20748;42.632;23.198;2023-04-15T06:30:54;0.55;;;0.47;;
34505;SDS011;20748;42.632;23.198;2023-04-15T06:33:28;0.55;;;0.40;;
34505;SDS011;20748;42.632;23.198;2023-04-15T06:36:02;2.30;;;0.90;;
34505;SDS011;20748;42.632;23.198;2023-04-15T06:38:36;3.88;;;0.65;;
34505;SDS011;20748;42.632;23.198;2023-04-15T06:41:10;2.33;;;0.73;;
34505;SDS011;20748;42.632;23.198;2023-04-15T06:43:43;2.63;;;1.60;;
34505;SDS011;20748;42.632;23.198;2023-04-15T06:46:17;1.88;;;0.68;;
34505;SDS011;20748;42.632;23.198;2023-04-15T06:48:51;1.30;;;0.45;;
34505;SDS011;20748;42.632;23.198;2023-04-15T06:51:26;3.40;;;0.85;;
34505;SDS011;20748;42.632;23.198;2023-04-15T06:53:59;2.42;;;0.60;;
34505;SDS011;20748;42.632;23.198;2023-04-15T06:56:34;1.83;;;0.80;;
34505;SDS011;20748;42.632;23.198;2023-04-15T06:59:07;2.60;;;0.50;;
34505;SDS011;20748;42.632;23.198;2023-04-15T07:01:41;4.25;;;1.05;;
34505;SDS011;20748;42.632;23.198;2023-04-15T07:04:15;2.33;;;1.25;;
34505;SDS011;20748;42.632;23.198;2023-04-15T07:06:49;3.50;;;1.02;;
34505;SDS011;20748;42.632;23.198;2023-04-15T07:09:22;5.90;;;0.90;;
34505;SDS011;20748;42.632;23.198;2023-04-15T07:11:57;3.28;;;0.95;;
34505;SDS011;20748;42.632;23.198;2023-04-15T07:14:30;2.78;;;0.80;;
34505;SDS011;20748;42.632;23.198;2023-04-15T07:17:04;0.85;;;0.65;;
34505;SDS011;20748;42.632;23.198;2023-04-15T07:19:38;6.63;;;1.63;;
34505;SDS011;20748;42.632;23.198;2023-04-15T07:22:12;2.80;;;1.13;;
34505;SDS011;20748;42.632;23.198;2023-04-15T07:24:46;0.80;;;0.50;;
34505;SDS011;20748;42.632;23.198;2023-04-15T07:27:20;2.85;;;1.00;;
34505;SDS011;20748;42.632;23.198;2023-04-15T07:29:53;2.15;;;0.68;;
34505;SDS011;20748;42.632;23.198;2023-04-15T07:32:27;0.88;;;0.52;;
34505;SDS011;20748;42.632;23.198;2023-04-15T07:35:00;2.13;;;0.95;;
34505;SDS011;20748;42.632;23.198;2023-04-15T07:37:36;1.35;;;0.77;;
34505;SDS011;20748;42.632;23.198;2023-04-15T07:40:10;1.92;;;0.88;;
34505;SDS011;20748;42.632;23.198;2023-04-15T07:42:44;0.90;;;0.55;;
34505;SDS011;20748;42.632;23.198;2023-04-15T07:45:20;1.75;;;0.85;;
34505;SDS011;20748;42.632;23.198;2023-04-15T07:47:53;1.60;;;0.70;;
34505;SDS011;20748;42.632;23.198;2023-04-15T07:50:28;5.20;;;0.82;;
34505;SDS011;20748;42.632;23.198;2023-04-15T07:53:02;1.27;;;0.65;;
34505;SDS011;20748;42.632;23.198;2023-04-15T07:55:37;0.55;;;0.43;;
34505;SDS011;20748;42.632;23.198;2023-04-15T07:58:10;1.20;;;0.90;;
34505;SDS011;20748;42.632;23.198;2023-04-15T08:00:44;1.50;;;0.90;;
34505;SDS011;20748;42.632;23.198;2023-04-15T08:03:18;2.10;;;0.50;;
34505;SDS011;20748;42.632;23.198;2023-04-15T08:05:51;1.80;;;0.40;;
34505;SDS011;20748;42.632;23.198;2023-04-15T08:08:26;3.10;;;0.60;;
34505;SDS011;20748;42.632;23.198;2023-04-15T08:11:00;1.50;;;0.80;;
34505;SDS011;20748;42.632;23.198;2023-04-15T08:13:33;1.30;;;0.45;;
34505;SDS011;20748;42.632;23.198;2023-04-15T08:16:15;1.48;;;0.63;;
34505;SDS011;20748;42.632;23.198;2023-04-15T08:18:51;3.47;;;0.82;;
34505;SDS011;20748;42.632;23.198;2023-04-15T08:21:26;1.58;;;0.63;;
34505;SDS011;20748;42.632;23.198;2023-04-15T08:24:01;1.20;;;0.60;;
34505;SDS011;20748;42.632;23.198;2023-04-15T08:26:35;0.75;;;0.50;;
34505;SDS011;20748;42.632;23.198;2023-04-15T08:29:08;1.08;;;0.73;;
34505;SDS011;20748;42.632;23.198;2023-04-15T08:31:42;0.98;;;0.40;;
34505;SDS011;20748;42.632;23.198;2023-04-15T08:34:16;3.38;;;0.35;;
34505;SDS011;20748;42.632;23.198;2023-04-15T08:36:50;1.10;;;0.32;;
34505;SDS011;20748;42.632;23.198;2023-04-15T08:39:24;3.00;;;0.47;;
34505;SDS011;20748;42.632;23.198;2023-04-15T08:41:59;3.63;;;2.13;;
34505;SDS011;20748;42.632;23.198;2023-04-15T08:44:34;1.42;;;0.50;;
34505;SDS011;20748;42.632;23.198;2023-04-15T08:47:08;2.83;;;0.93;;
34505;SDS011;20748;42.632;23.198;2023-04-15T08:49:45;2.97;;;0.68;;
34505;SDS011;20748;42.632;23.198;2023-04-15T08:54:59;1.35;;;0.40;;
34505;SDS011;20748;42.632;23.198;2023-04-15T08:57:35;1.05;;;0.57;;
34505;SDS011;20748;42.632;23.198;2023-04-15T09:00:10;1.75;;;0.65;;
34505;SDS011;20748;42.632;23.198;2023-04-15T09:02:45;1.02;;;0.50;;
34505;SDS011;20748;42.632;23.198;2023-04-15T09:05:19;0.52;;;0.40;;
34505;SDS011;20748;42.632;23.198;2023-04-15T09:07:53;2.58;;;0.60;;
34505;SDS011;20748;42.632;23.198;2023-04-15T09:10:27;1.23;;;0.50;;
34505;SDS011;20748;42.632;23.198;2023-04-15T09:13:01;1.27;;;0.35;;
34505;SDS011;20748;42.632;23.198;2023-04-15T09:15:36;3.25;;;0.70;;
34505;SDS011;20748;42.632;23.198;2023-04-15T09:18:11;2.38;;;0.50;;
34505;SDS011;20748;42.632;23.198;2023-04-15T09:20:45;0.75;;;0.43;;
34505;SDS011;20748;42.632;23.198;2023-04-15T09:23:19;0.20;;;0.20;;
34505;SDS011;20748;42.632;23.198;2023-04-15T09:25:53;1.15;;;0.32;;
34505;SDS011;20748;42.632;23.198;2023-04-15T09:28:27;1.25;;;0.35;;
34505;SDS011;20748;42.632;23.198;2023-04-15T09:31:01;0.55;;;0.25;;
34505;SDS011;20748;42.632;23.198;2023-04-15T09:33:34;0.22;;;0.22;;
34505;SDS011;20748;42.632;23.198;2023-04-15T09:36:08;0.43;;;0.25;;
34505;SDS011;20748;42.632;23.198;2023-04-15T09:38:49;5.20;;;2.05;;
34505;SDS011;20748;42.632;23.198;2023-04-15T09:41:27;2.22;;;0.30;;
34505;SDS011;20748;42.632;23.198;2023-04-15T09:44:01;1.70;;;0.50;;
34505;SDS011;20748;42.632;23.198;2023-04-15T09:46:42;0.73;;;0.30;;
34505;SDS011;20748;42.632;23.198;2023-04-15T09:49:16;0.63;;;0.30;;
34505;SDS011;20748;42.632;23.198;2023-04-15T09:51:51;0.40;;;0.30;;
34505;SDS011;20748;42.632;23.198;2023-04-15T09:54:38;1.83;;;0.43;;
34505;SDS011;20748;42.632;23.198;2023-04-15T09:57:14;1.00;;;0.35;;
34505;SDS011;20748;42.632;23.198;2023-04-15T09:59:47;5.10;;;1.63;;
34505;SDS011;20748;42.632;23.198;2023-04-15T10:02:21;1.25;;;0.95;;
34505;SDS011;20748;42.632;23.198;2023-04-15T10:04:55;1.65;;;0.75;;
34505;SDS011;20748;42.632;23.198;2023-04-15T10:07:29;9.43;;;2.97;;
34505;SDS011;20748;42.632;23.198;2023-04-15T10:10:04;2.85;;;1.42;;
34505;SDS011;20748;42.632;23.198;2023-04-15T10:12:39;3.05;;;0.63;;
34505;SDS011;20748;42.632;23.198;2023-04-15T10:15:15;1.25;;;0.77;;
34505;SDS011;20748;42.632;23.198;2023-04-15T10:17:49;0.32;;;0.32;;
34505;SDS011;20748;42.632;23.198;2023-04-15T10:20:25;0.85;;;0.50;;
34505;SDS011;20748;42.632;23.198;2023-04-15T10:23:01;0.70;;;0.30;;
34505;SDS011;20748;42.632;23.198;2023-04-15T10:25:35;0.60;;;0.32;;
34505;SDS011;20748;42.632;23.198;2023-04-15T10:28:10;1.33;;;0.52;;
34505;SDS011;20748;42.632;23.198;2023-04-15T10:30:44;1.00;;;0.63;;
34505;SDS011;20748;42.632;23.198;2023-04-15T10:33:20;1.48;;;0.50;;
34505;SDS011;20748;42.632;23.198;2023-04-15T10:35:55;2.13;;;0.43;;
34505;SDS011;20748;42.632;23.198;2023-04-15T10:38:30;1.00;;;0.32;;
34505;SDS011;20748;42.632;23.198;2023-04-15T10:41:12;2.78;;;0.70;;
34505;SDS011;20748;42.632;23.198;2023-04-15T10:43:54;2.85;;;0.63;;
34505;SDS011;20748;42.632;23.198;2023-04-15T10:46:34;2.42;;;0.63;;
34505;SDS011;20748;42.632;23.198;2023-04-15T10:49:09;0.73;;;0.50;;
34505;SDS011;20748;42.632;23.198;2023-04-15T10:51:45;1.27;;;0.70;;
34505;SDS011;20748;42.632;23.198;2023-04-15T10:54:29;5.03;;;0.80;;
34505;SDS011;20748;42.632;23.198;2023-04-15T10:57:07;2.17;;;0.57;;
34505;SDS011;20748;42.632;23.198;2023-04-15T10:59:59;2.58;;;1.10;;
34505;SDS011;20748;42.632;23.198;2023-04-15T11:02:42;0.43;;;0.30;;
34505;SDS011;20748;42.632;23.198;2023-04-15T11:07:52;1.48;;;0.73;;
34505;SDS011;20748;42.632;23.198;2023-04-15T11:13:28;2.80;;;0.60;;
34505;SDS011;20748;42.632;23.198;2023-04-15T11:16:04;0.98;;;0.40;;
34505;SDS011;20748;42.632;23.198;2023-04-15T11:18:38;1.85;;;0.82;;
34505;SDS011;20748;42.632;23.198;2023-04-15T11:21:11;0.85;;;0.50;;
34505;SDS011;20748;42.632;23.198;2023-04-15T11:23:45;0.73;;;0.40;;
34505;SDS011;20748;42.632;23.198;2023-04-15T11:26:19;2.95;;;1.00;;
34505;SDS011;20748;42.632;23.198;2023-04-15T11:28:58;0.95;;;0.52;;
34505;SDS011;20748;42.632;23.198;2023-04-15T11:31:34;0.55;;;0.50;;
34505;SDS011;20748;42.632;23.198;2023-04-15T11:34:07;3.15;;;0.70;;
34505;SDS011;20748;42.632;23.198;2023-04-15T11:36:41;0.73;;;0.52;;
34505;SDS011;20748;42.632;23.198;2023-04-15T11:39:15;1.98;;;1.05;;
34505;SDS011;20748;42.632;23.198;2023-04-15T11:41:49;1.50;;;0.55;;
34505;SDS011;20748;42.632;23.198;2023-04-15T11:44:23;1.48;;;0.68;;
34505;SDS011;20748;42.632;23.198;2023-04-15T11:46:57;2.25;;;0.70;;
34505;SDS011;20748;42.632;23.198;2023-04-15T11:49:31;0.75;;;0.43;;
34505;SDS011;20748;42.632;23.198;2023-04-15T11:52:09;2.15;;;0.60;;
34505;SDS011;20748;42.632;23.198;2023-04-15T11:54:41;1.27;;;0.35;;
34505;SDS011;20748;42.632;23.198;2023-04-15T11:57:14;0.90;;;0.43;;
34505;SDS011;20748;42.632;23.198;2023-04-15T11:59:46;0.90;;;0.50;;
34505;SDS011;20748;42.632;23.198;2023-04-15T12:02:19;0.65;;;0.50;;
34505;SDS011;20748;42.632;23.198;2023-04-15T12:05:01;0.50;;;0.35;;
34505;SDS011;20748;42.632;23.198;2023-04-15T12:10:30;2.25;;;1.00;;
34505;SDS011;20748;42.632;23.198;2023-04-15T12:13:05;1.60;;;0.82;;
34505;SDS011;20748;42.632;23.198;2023-04-15T12:15:37;2.35;;;0.75;;
34505;SDS011;20748;42.632;23.198;2023-04-15T12:18:16;0.85;;;0.40;;
34505;SDS011;20748;42.632;23.198;2023-04-15T12:20:48;0.75;;;0.43;;
34505;SDS011;20748;42.632;23.198;2023-04-15T12:23:21;0.60;;;0.43;;
34505;SDS011;20748;42.632;23.198;2023-04-15T12:25:53;4.38;;;0.57;;
34505;SDS011;20748;42.632;23.198;2023-04-15T12:28:29;1.02;;;0.40;;
34505;SDS011;20748;42.632;23.198;2023-04-15T12:31:05;0.52;;;0.30;;
34505;SDS011;20748;42.632;23.198;2023-04-15T12:33:39;3.10;;;0.65;;
34505;SDS011;20748;42.632;23.198;2023-04-15T12:36:11;1.88;;;0.73;;
34505;SDS011;20748;42.632;23.198;2023-04-15T12:38:43;1.50;;;0.40;;
34505;SDS011;20748;42.632;23.198;2023-04-15T12:41:16;1.80;;;0.60;;
34505;SDS011;20748;42.632;23.198;2023-04-15T12:43:48;0.88;;;0.40;;
34505;SDS011;20748;42.632;23.198;2023-04-15T12:46:21;1.55;;;0.73;;
34505;SDS011;20748;42.632;23.198;2023-04-15T12:48:54;3.60;;;0.95;;
34505;SDS011;20748;42.632;23.198;2023-04-15T12:51:27;0.73;;;0.57;;
34505;SDS011;20748;42.632;23.198;2023-04-15T12:53:59;1.75;;;0.60;;
34505;SDS011;20748;42.632;23.198;2023-04-15T12:56:32;2.55;;;1.00;;
34505;SDS011;20748;42.632;23.198;2023-04-15T12:59:04;2.30;;;0.77;;
34505;SDS011;20748;42.632;23.198;2023-04-15T13:01:37;0.50;;;0.50;;
34505;SDS011;20748;42.632;23.198;2023-04-15T13:04:11;1.50;;;0.40;;
34505;SDS011;20748;42.632;23.198;2023-04-15T13:06:43;0.77;;;0.50;;
34505;SDS011;20748;42.632;23.198;2023-04-15T13:09:15;1.42;;;0.63;;
34505;SDS011;20748;42.632;23.198;2023-04-15T13:11:48;1.17;;;0.43;;
34505;SDS011;20748;42.632;23.198;2023-04-15T13:14:20;1.85;;;0.50;;
34505;SDS011;20748;42.632;23.198;2023-04-15T13:16:53;1.00;;;0.32;;
34505;SDS011;20748;42.632;23.198;2023-04-15T13:19:26;1.33;;;0.28;;
34505;SDS011;20748;42.632;23.198;2023-04-15T13:21:58;1.25;;;0.32;;
34505;SDS011;20748;42.632;23.198;2023-04-15T13:24:30;1.63;;;0.82;;
34505;SDS011;20748;42.632;23.198;2023-04-15T13:27:03;1.08;;;0.43;;
34505;SDS011;20748;42.632;23.198;2023-04-15T13:29:35;4.05;;;1.30;;
34505;SDS011;20748;42.632;23.198;2023-04-15T13:32:08;1.30;;;0.75;;
34505;SDS011;20748;42.632;23.198;2023-04-15T13:34:41;1.10;;;0.57;;
34505;SDS011;20748;42.632;23.198;2023-04-15T13:37:13;1.40;;;0.68;;
34505;SDS011;20748;42.632;23.198;2023-04-15T13:39:45;2.47;;;1.00;;
34505;SDS011;20748;42.632;23.198;2023-04-15T13:42:18;3.55;;;1.77;;
34505;SDS011;20748;42.632;23.198;2023-04-15T13:44:50;0.85;;;0.52;;
34505;SDS011;20748;42.632;23.198;2023-04-15T13:47:23;1.25;;;0.40;;
34505;SDS011;20748;42.632;23.198;2023-04-15T13:49:56;1.63;;;0.20;;
34505;SDS011;20748;42.632;23.198;2023-04-15T13:52:29;0.17;;;0.17;;
34505;SDS011;20748;42.632;23.198;2023-04-15T13:55:01;0.70;;;0.40;;
34505;SDS011;20748;42.632;23.198;2023-04-15T13:57:53;4.00;;;1.20;;
34505;SDS011;20748;42.632;23.198;2023-04-15T14:00:27;2.22;;;0.95;;
34505;SDS011;20748;42.632;23.198;2023-04-15T14:02:59;2.25;;;0.82;;
34505;SDS011;20748;42.632;23.198;2023-04-15T14:05:33;1.13;;;0.40;;
34505;SDS011;20748;42.632;23.198;2023-04-15T14:08:05;0.55;;;0.30;;
34505;SDS011;20748;42.632;23.198;2023-04-15T14:10:37;2.47;;;0.63;;
34505;SDS011;20748;42.632;23.198;2023-04-15T14:13:10;0.43;;;0.20;;
34505;SDS011;20748;42.632;23.198;2023-04-15T14:15:42;1.55;;;0.30;;
34505;SDS011;20748;42.632;23.198;2023-04-15T14:18:14;0.98;;;0.30;;
34505;SDS011;20748;42.632;23.198;2023-04-15T14:20:47;0.17;;;0.17;;
34505;SDS011;20748;42.632;23.198;2023-04-15T14:23:20;0.52;;;0.38;;
34505;SDS011;20748;42.632;23.198;2023-04-15T14:25:52;1.77;;;0.60;;
34505;SDS011;20748;42.632;23.198;2023-04-15T14:28:25;2.00;;;0.60;;
34505;SDS011;20748;42.632;23.198;2023-04-15T14:30:57;1.40;;;0.30;;
34505;SDS011;20748;42.632;23.198;2023-04-15T14:33:29;1.20;;;0.40;;
34505;SDS011;20748;42.632;23.198;2023-04-15T14:36:03;0.70;;;0.50;;
34505;SDS011;20748;42.632;23.198;2023-04-15T14:38:36;1.02;;;0.30;;
34505;SDS011;20748;42.632;23.198;2023-04-15T14:41:10;1.30;;;0.43;;
34505;SDS011;20748;42.632;23.198;2023-04-15T14:43:42;1.40;;;0.60;;
34505;SDS011;20748;42.632;23.198;2023-04-15T14:46:14;3.22;;;1.10;;
34505;SDS011;20748;42.632;23.198;2023-04-15T14:48:47;1.38;;;1.10;;
34505;SDS011;20748;42.632;23.198;2023-04-15T14:51:21;3.05;;;0.82;;
34505;SDS011;20748;42.632;23.198;2023-04-15T14:53:53;1.33;;;0.70;;
34505;SDS011;20748;42.632;23.198;2023-04-15T14:56:26;1.00;;;0.50;;
34505;SDS011;20748;42.632;23.198;2023-04-15T14:58:58;0.30;;;0.30;;
34505;SDS011;20748;42.632;23.198;2023-04-15T15:01:30;1.35;;;1.15;;
34505;SDS011;20748;42.632;23.198;2023-04-15T15:04:04;0.60;;;0.40;;
34505;SDS011;20748;42.632;23.198;2023-04-15T15:06:37;1.27;;;0.77;;
34505;SDS011;20748;42.632;23.198;2023-04-15T15:09:10;1.15;;;0.50;;
34505;SDS011;20748;42.632;23.198;2023-04-15T15:11:42;0.32;;;0.30;;
34505;SDS011;20748;42.632;23.198;2023-04-15T15:14:14;0.60;;;0.50;;
34505;SDS011;20748;42.632;23.198;2023-04-15T15:16:47;0.55;;;0.30;;
34505;SDS011;20748;42.632;23.198;2023-04-15T15:19:19;1.40;;;1.00;;
34505;SDS011;20748;42.632;23.198;2023-04-15T15:21:52;1.88;;;0.82;;
34505;SDS011;20748;42.632;23.198;2023-04-15T15:24:25;4.57;;;0.77;;